EAG5511 SBSP-SBRJ
Flight info
| Callsign | EAG5511 |
|---|---|
| Flight time | 0h 36m |
| Altitude | 31000 |
| Route | NIBRU UZ171 KEVUN |
| Aircraft | C700/M-SBDGHM1RWXY/LB2 |
Departure
| Time | 2026-05-04 22:25 |
|---|---|
| Airport | Congonhas–Deputado Freitas Nobre Airport (SBSP) |
Arrival
| Time | 2026-05-04 23:02 |
|---|---|
| Airport | Santos Dumont Airport (SBRJ) |
| Time | Latitude | Longitude | Altitude | Speed | Heading |
|---|---|---|---|---|---|
| 2026-05-04 22:19 | -23.62399 | -46.66053 | 2586 ft | 0 kts | 236° |
| 2026-05-04 22:22 | -23.62393 | -46.66043 | 2612 ft | 2 kts | 236° |
| 2026-05-04 22:22 | -23.62384 | -46.66028 | 2612 ft | 2 kts | 236° |
| 2026-05-04 22:22 | -23.62375 | -46.66014 | 2611 ft | 2 kts | 236° |
| 2026-05-04 22:22 | -23.62366 | -46.65999 | 2611 ft | 2 kts | 236° |
| 2026-05-04 22:23 | -23.62357 | -46.65984 | 2610 ft | 2 kts | 236° |
| 2026-05-04 22:23 | -23.62354 | -46.65968 | 2610 ft | 2 kts | 314° |
| 2026-05-04 22:23 | -23.62357 | -46.65965 | 2610 ft | 0 kts | 335° |
| 2026-05-04 22:23 | -23.62356 | -46.65966 | 2610 ft | 1 kts | 334° |
| 2026-05-04 22:24 | -23.62311 | -46.65993 | 2609 ft | 14 kts | 330° |
| 2026-05-04 22:24 | -23.62192 | -46.66071 | 2605 ft | 21 kts | 326° |
| 2026-05-04 22:24 | -23.62072 | -46.66131 | 2600 ft | 17 kts | 14° |
| 2026-05-04 22:24 | -23.62054 | -46.66069 | 2600 ft | 7 kts | 145° |
| 2026-05-04 22:25 | -23.62197 | -46.65968 | 2606 ft | 63 kts | 147° |
| 2026-05-04 22:25 | -23.62845 | -46.65527 | 2632 ft | 153 kts | 147° |
| 2026-05-04 22:25 | -23.63917 | -46.64810 | 3227 ft | 201 kts | 143° |
| 2026-05-04 22:25 | -23.65014 | -46.63745 | 4502 ft | 223 kts | 122° |
| 2026-05-04 22:26 | -23.65732 | -46.62170 | 5887 ft | 241 kts | 112° |
| 2026-05-04 22:26 | -23.66503 | -46.60431 | 7032 ft | 268 kts | 117° |
| 2026-05-04 22:26 | -23.67454 | -46.58570 | 8177 ft | 289 kts | 120° |
| 2026-05-04 22:26 | -23.68417 | -46.56679 | 9760 ft | 291 kts | 120° |
| 2026-05-04 22:27 | -23.69401 | -46.54692 | 11021 ft | 309 kts | 120° |
| 2026-05-04 22:27 | -23.70460 | -46.52547 | 12085 ft | 330 kts | 120° |
| 2026-05-04 22:27 | -23.71323 | -46.50202 | 13568 ft | 339 kts | 107° |
| 2026-05-04 22:27 | -23.71681 | -46.47614 | 14814 ft | 353 kts | 94° |
| 2026-05-04 22:28 | -23.71482 | -46.44900 | 15980 ft | 365 kts | 82° |
| 2026-05-04 22:28 | -23.71073 | -46.42130 | 17125 ft | 375 kts | 81° |
| 2026-05-04 22:28 | -23.70664 | -46.39282 | 18266 ft | 385 kts | 81° |
| 2026-05-04 22:28 | -23.70252 | -46.36360 | 19280 ft | 394 kts | 81° |
| 2026-05-04 22:29 | -23.69835 | -46.33418 | 20276 ft | 401 kts | 81° |
| 2026-05-04 22:29 | -23.69400 | -46.30383 | 21330 ft | 408 kts | 82° |
| 2026-05-04 22:29 | -23.68960 | -46.27298 | 22331 ft | 415 kts | 82° |
| 2026-05-04 22:29 | -23.68511 | -46.24160 | 23310 ft | 422 kts | 82° |
| 2026-05-04 22:30 | -23.68056 | -46.20979 | 24183 ft | 428 kts | 82° |
| 2026-05-04 22:30 | -23.67593 | -46.17739 | 24962 ft | 436 kts | 82° |
| 2026-05-04 22:30 | -23.67118 | -46.14443 | 25752 ft | 444 kts | 82° |
| 2026-05-04 22:30 | -23.66636 | -46.11091 | 26546 ft | 451 kts | 82° |
| 2026-05-04 22:31 | -23.66154 | -46.07729 | 27264 ft | 458 kts | 82° |
| 2026-05-04 22:31 | -23.65660 | -46.04270 | 27989 ft | 465 kts | 82° |
| 2026-05-04 22:31 | -23.65153 | -46.00754 | 28714 ft | 472 kts | 82° |
| 2026-05-04 22:31 | -23.64641 | -45.97191 | 29454 ft | 479 kts | 82° |
| 2026-05-04 22:32 | -23.64119 | -45.93578 | 30157 ft | 486 kts | 82° |
| 2026-05-04 22:32 | -23.63589 | -45.89912 | 30811 ft | 492 kts | 82° |
| 2026-05-04 22:32 | -23.63051 | -45.86192 | 31226 ft | 504 kts | 82° |
| 2026-05-04 22:32 | -23.62498 | -45.82373 | 31234 ft | 525 kts | 82° |
| 2026-05-04 22:33 | -23.61920 | -45.78386 | 31247 ft | 544 kts | 82° |
| 2026-05-04 22:33 | -23.61319 | -45.74254 | 31246 ft | 558 kts | 81° |
| 2026-05-04 22:33 | -23.60706 | -45.70067 | 31251 ft | 561 kts | 81° |
| 2026-05-04 22:34 | -23.59476 | -45.61643 | 31243 ft | 564 kts | 81° |
| 2026-05-04 22:34 | -23.58235 | -45.53196 | 31248 ft | 566 kts | 81° |
| 2026-05-04 22:35 | -23.56884 | -45.44812 | 31240 ft | 565 kts | 76° |
| 2026-05-04 22:35 | -23.55089 | -45.36473 | 31241 ft | 566 kts | 76° |
| 2026-05-04 22:36 | -23.53340 | -45.28104 | 31252 ft | 566 kts | 76° |
| 2026-05-04 22:36 | -23.51548 | -45.19766 | 31247 ft | 565 kts | 76° |
| 2026-05-04 22:36 | -23.50668 | -45.15591 | 31064 ft | 563 kts | 76° |
| 2026-05-04 22:37 | -23.49806 | -45.11532 | 30364 ft | 551 kts | 76° |
| 2026-05-04 22:37 | -23.48947 | -45.07531 | 29599 ft | 535 kts | 76° |
| 2026-05-04 22:37 | -23.48112 | -45.03638 | 28906 ft | 521 kts | 76° |
| 2026-05-04 22:37 | -23.47298 | -44.99828 | 28228 ft | 512 kts | 76° |
| 2026-05-04 22:38 | -23.46493 | -44.96072 | 27565 ft | 506 kts | 76° |
| 2026-05-04 22:38 | -23.45691 | -44.92355 | 26896 ft | 502 kts | 76° |
| 2026-05-04 22:38 | -23.44861 | -44.88651 | 26232 ft | 511 kts | 75° |
| 2026-05-04 22:38 | -23.44006 | -44.84870 | 25558 ft | 514 kts | 76° |
| 2026-05-04 22:39 | -23.43173 | -44.81099 | 24880 ft | 509 kts | 76° |
| 2026-05-04 22:39 | -23.42366 | -44.77424 | 24227 ft | 503 kts | 76° |
| 2026-05-04 22:39 | -23.41544 | -44.73753 | 23523 ft | 495 kts | 75° |
| 2026-05-04 22:39 | -23.40734 | -44.70142 | 22866 ft | 488 kts | 76° |
| 2026-05-04 22:40 | -23.39937 | -44.66564 | 22220 ft | 484 kts | 76° |
| 2026-05-04 22:40 | -23.39147 | -44.63023 | 21592 ft | 480 kts | 75° |
| 2026-05-04 22:40 | -23.38360 | -44.59510 | 20956 ft | 475 kts | 75° |
| 2026-05-04 22:40 | -23.37580 | -44.56031 | 20332 ft | 471 kts | 75° |
| 2026-05-04 22:41 | -23.36809 | -44.52584 | 19712 ft | 467 kts | 75° |
| 2026-05-04 22:41 | -23.36052 | -44.49219 | 19116 ft | 462 kts | 75° |
| 2026-05-04 22:41 | -23.35291 | -44.45838 | 18502 ft | 458 kts | 75° |
| 2026-05-04 22:41 | -23.34491 | -44.42507 | 17845 ft | 450 kts | 71° |
| 2026-05-04 22:42 | -23.33262 | -44.39408 | 17118 ft | 442 kts | 62° |
| 2026-05-04 22:42 | -23.31957 | -44.36420 | 16538 ft | 434 kts | 64° |
| 2026-05-04 22:42 | -23.30720 | -44.33446 | 15970 ft | 429 kts | 64° |
| 2026-05-04 22:42 | -23.29470 | -44.30519 | 15407 ft | 424 kts | 64° |
| 2026-05-04 22:43 | -23.28209 | -44.27641 | 14853 ft | 419 kts | 64° |
| 2026-05-04 22:43 | -23.26996 | -44.24828 | 14311 ft | 414 kts | 65° |
| 2026-05-04 22:43 | -23.25793 | -44.22006 | 13738 ft | 409 kts | 64° |
| 2026-05-04 22:43 | -23.24594 | -44.19224 | 13194 ft | 403 kts | 64° |
| 2026-05-04 22:44 | -23.23431 | -44.16531 | 12676 ft | 382 kts | 64° |
| 2026-05-04 22:44 | -23.22332 | -44.13982 | 12184 ft | 363 kts | 64° |
| 2026-05-04 22:44 | -23.21284 | -44.11555 | 11719 ft | 347 kts | 64° |
| 2026-05-04 22:44 | -23.20280 | -44.09226 | 11272 ft | 334 kts | 64° |
| 2026-05-04 22:45 | -23.19285 | -44.07021 | 11085 ft | 314 kts | 61° |
| 2026-05-04 22:45 | -23.17424 | -44.02954 | 11076 ft | 300 kts | 62° |
| 2026-05-04 22:45 | -23.16488 | -44.00909 | 11075 ft | 303 kts | 62° |
| 2026-05-04 22:46 | -23.15556 | -43.98844 | 11078 ft | 306 kts | 64° |
| 2026-05-04 22:46 | -23.14677 | -43.96736 | 11077 ft | 306 kts | 64° |
| 2026-05-04 22:46 | -23.13770 | -43.94649 | 11076 ft | 305 kts | 63° |
| 2026-05-04 22:46 | -23.12865 | -43.92562 | 11020 ft | 306 kts | 64° |
| 2026-05-04 22:47 | -23.11971 | -43.90462 | 10817 ft | 306 kts | 64° |
| 2026-05-04 22:47 | -23.11081 | -43.88373 | 10563 ft | 303 kts | 64° |
| 2026-05-04 22:47 | -23.10195 | -43.86305 | 10296 ft | 300 kts | 63° |
| 2026-05-04 22:47 | -23.09330 | -43.84283 | 10017 ft | 298 kts | 63° |
| 2026-05-04 22:48 | -23.08459 | -43.82258 | 9730 ft | 296 kts | 64° |
| 2026-05-04 22:48 | -23.07595 | -43.80236 | 9454 ft | 294 kts | 64° |
| 2026-05-04 22:48 | -23.06735 | -43.78233 | 9188 ft | 293 kts | 63° |
| 2026-05-04 22:48 | -23.05879 | -43.76235 | 8919 ft | 291 kts | 63° |
| 2026-05-04 22:49 | -23.05024 | -43.74245 | 8653 ft | 289 kts | 63° |
| 2026-05-04 22:49 | -23.04177 | -43.72270 | 8387 ft | 288 kts | 63° |
| 2026-05-04 22:49 | -23.03622 | -43.70977 | 8216 ft | 287 kts | 63° |
| 2026-05-04 22:49 | -23.02779 | -43.69015 | 7961 ft | 285 kts | 63° |
| 2026-05-04 22:50 | -23.01945 | -43.67067 | 7702 ft | 283 kts | 63° |
| 2026-05-04 22:50 | -23.00850 | -43.64508 | 7373 ft | 281 kts | 63° |
| 2026-05-04 22:50 | -23.00030 | -43.62584 | 7133 ft | 282 kts | 64° |
| 2026-05-04 22:50 | -22.99719 | -43.61193 | 7076 ft | 282 kts | 86° |
| 2026-05-04 22:51 | -23.00557 | -43.58571 | 7079 ft | 286 kts | 126° |
| 2026-05-04 22:51 | -23.01370 | -43.57447 | 7085 ft | 284 kts | 129° |
| 2026-05-04 22:51 | -23.02852 | -43.55064 | 7068 ft | 288 kts | 118° |
| 2026-05-04 22:51 | -23.03609 | -43.53889 | 7060 ft | 287 kts | 132° |
| 2026-05-04 22:52 | -23.04653 | -43.52051 | 7060 ft | 288 kts | 105° |
| 2026-05-04 22:52 | -23.04398 | -43.49297 | 7051 ft | 281 kts | 60° |
| 2026-05-04 22:52 | -23.03578 | -43.48199 | 7043 ft | 276 kts | 37° |
| 2026-05-04 22:52 | -23.01880 | -43.47409 | 7039 ft | 270 kts | 5° |
| 2026-05-04 22:53 | -23.00027 | -43.47641 | 6730 ft | 268 kts | 342° |
| 2026-05-04 22:53 | -22.98259 | -43.48218 | 6456 ft | 263 kts | 343° |
| 2026-05-04 22:53 | -22.96448 | -43.48490 | 6077 ft | 266 kts | 6° |
| 2026-05-04 22:53 | -22.94828 | -43.47628 | 6048 ft | 263 kts | 43° |
| 2026-05-04 22:54 | -22.93906 | -43.45204 | 6070 ft | 274 kts | 89° |
| 2026-05-04 22:54 | -22.94157 | -43.43839 | 6050 ft | 277 kts | 110° |
| 2026-05-04 22:54 | -22.95050 | -43.41998 | 6059 ft | 275 kts | 119° |
| 2026-05-04 22:54 | -22.95933 | -43.40155 | 6063 ft | 277 kts | 114° |
| 2026-05-04 22:55 | -22.96569 | -43.38217 | 6065 ft | 276 kts | 102° |
| 2026-05-04 22:55 | -22.96841 | -43.36156 | 6067 ft | 275 kts | 93° |
| 2026-05-04 22:55 | -22.96988 | -43.34090 | 6068 ft | 273 kts | 94° |
| 2026-05-04 22:55 | -22.97230 | -43.32043 | 6065 ft | 275 kts | 98° |
| 2026-05-04 22:56 | -22.97613 | -43.29322 | 6069 ft | 276 kts | 97° |
| 2026-05-04 22:56 | -22.97789 | -43.27934 | 6066 ft | 276 kts | 97° |
| 2026-05-04 22:56 | -22.98040 | -43.25865 | 6065 ft | 275 kts | 97° |
| 2026-05-04 22:56 | -22.98294 | -43.23842 | 6066 ft | 275 kts | 97° |
| 2026-05-04 22:57 | -22.98556 | -43.21782 | 6065 ft | 277 kts | 96° |
| 2026-05-04 22:57 | -22.98631 | -43.19722 | 6050 ft | 268 kts | 77° |
| 2026-05-04 22:57 | -22.97789 | -43.18056 | 6048 ft | 245 kts | 45° |
| 2026-05-04 22:57 | -22.96552 | -43.16859 | 5804 ft | 238 kts | 41° |
| 2026-05-04 22:58 | -22.95402 | -43.15523 | 5258 ft | 246 kts | 51° |
| 2026-05-04 22:58 | -22.94389 | -43.14004 | 4694 ft | 251 kts | 55° |
| 2026-05-04 22:58 | -22.93375 | -43.12471 | 4103 ft | 239 kts | 53° |
| 2026-05-04 22:58 | -22.92427 | -43.11127 | 3543 ft | 212 kts | 53° |
| 2026-05-04 22:59 | -22.91579 | -43.09933 | 3024 ft | 192 kts | 52° |
| 2026-05-04 22:59 | -22.90518 | -43.09168 | 2600 ft | 187 kts | 15° |
| 2026-05-04 22:59 | -22.89263 | -43.09469 | 2059 ft | 193 kts | 328° |
| 2026-05-04 22:59 | -22.88592 | -43.10689 | 1749 ft | 188 kts | 289° |
| 2026-05-04 23:00 | -22.88140 | -43.11977 | 1499 ft | 178 kts | 302° |
| 2026-05-04 23:00 | -22.87482 | -43.13003 | 1252 ft | 152 kts | 309° |
| 2026-05-04 23:00 | -22.86932 | -43.13934 | 1046 ft | 147 kts | 293° |
| 2026-05-04 23:00 | -22.86945 | -43.14989 | 866 ft | 139 kts | 254° |
| 2026-05-04 23:01 | -22.87404 | -43.15874 | 684 ft | 135 kts | 225° |
| 2026-05-04 23:01 | -22.88188 | -43.16364 | 541 ft | 127 kts | 197° |
| 2026-05-04 23:01 | -22.89100 | -43.16432 | 300 ft | 137 kts | 175° |
| 2026-05-04 23:01 | -22.90003 | -43.16351 | 136 ft | 128 kts | 177° |
| 2026-05-04 23:02 | -22.90863 | -43.16293 | 24 ft | 112 kts | 178° |
| 2026-05-04 23:02 | -22.91281 | -43.16267 | 22 ft | 20 kts | 177° |
| 2026-05-04 23:02 | -22.91347 | -43.16349 | 20 ft | 17 kts | 271° |
| 2026-05-04 23:02 | -22.91350 | -43.16463 | 24 ft | 14 kts | 267° |
| 2026-05-04 23:03 | -22.91352 | -43.16572 | 25 ft | 6 kts | 266° |
| 2026-05-04 23:03 | -22.91352 | -43.16573 | 27 ft | 0 kts | 266° |